createdAt,value
2024-02-20T00:02:21.726Z,101102.34
2024-02-20T00:04:49.153Z,101096.28
2024-02-20T00:07:17.196Z,101100.72
2024-02-20T00:09:44.563Z,101104.66
2024-02-20T00:12:11.812Z,101105.22
2024-02-20T00:14:40.734Z,101094.66
2024-02-20T00:17:08.767Z,101091.28
2024-02-20T00:19:36.161Z,101078.47
2024-02-20T00:22:04.218Z,101089.63
2024-02-20T00:24:31.611Z,101094.47
2024-02-20T00:26:59.682Z,101083.69
2024-02-20T00:29:27.477Z,101085.22
2024-02-20T00:31:54.762Z,101084.91
2024-02-20T00:34:22.190Z,101085.63
2024-02-20T00:36:50.662Z,101066.91
2024-02-20T00:39:18.010Z,101088.09
2024-02-20T00:41:45.355Z,101091.41
2024-02-20T00:44:13.287Z,101078.72
2024-02-20T00:46:40.786Z,101083.66
2024-02-20T00:49:08.268Z,101075.06
2024-02-20T00:51:35.582Z,101075.84
2024-02-20T00:54:02.940Z,101088.78
2024-02-20T00:56:30.236Z,101089.16
2024-02-20T00:58:57.550Z,101094.53
2024-02-20T01:01:26.013Z,101063.41
2024-02-20T01:03:53.677Z,101073.16
2024-02-20T01:06:21.175Z,101091.38
2024-02-20T01:08:48.988Z,101075.69
2024-02-20T01:11:16.385Z,101097.13
2024-02-20T01:13:43.701Z,101101.91
2024-02-20T01:16:10.989Z,101094.31
2024-02-20T01:18:43.001Z,101102.22
2024-02-20T01:21:11.301Z,101091.19
2024-02-20T01:23:38.995Z,101076.38
2024-02-20T01:26:06.371Z,101092.44
2024-02-20T01:28:33.699Z,101093.53
2024-02-20T01:31:01.159Z,101077.72
2024-02-20T01:33:28.643Z,101086.56
2024-02-20T01:35:56.651Z,101065.38
2024-02-20T01:38:24.817Z,101092.38
2024-02-20T01:40:52.033Z,101054.38
2024-02-20T01:43:19.484Z,101077.56
2024-02-20T01:45:46.835Z,101098.84
2024-02-20T01:48:16.014Z,101082.47
2024-02-20T01:50:44.786Z,101086.78
2024-02-20T01:53:31.769Z,101075.63
2024-02-20T01:56:02.180Z,101082.06
2024-02-20T01:58:29.802Z,101080.38
2024-02-20T02:00:57.654Z,101089.25
2024-02-20T02:03:25.262Z,101074.31
2024-02-20T02:05:52.618Z,101087.84
2024-02-20T02:08:19.994Z,101045.47
2024-02-20T02:10:47.409Z,101074.31
2024-02-20T02:13:16.847Z,101075.91
2024-02-20T02:15:44.504Z,101058.03
2024-02-20T02:18:12.149Z,101070.59
2024-02-20T02:20:39.870Z,101072.47
2024-02-20T02:23:07.302Z,101070.13
2024-02-20T02:25:34.768Z,101067.72
2024-02-20T02:28:02.099Z,101069.91
2024-02-20T02:30:29.923Z,101076.47
2024-02-20T02:32:57.282Z,101069.91
2024-02-20T02:35:24.756Z,101057.00
2024-02-20T02:37:52.654Z,101078.25
2024-02-20T02:40:20.093Z,101079.31
2024-02-20T02:42:47.322Z,101070.28
2024-02-20T02:45:14.645Z,101075.88
2024-02-20T02:47:41.996Z,101072.34
2024-02-20T02:50:10.090Z,101073.94
2024-02-20T02:52:37.615Z,101055.56
2024-02-20T02:55:05.260Z,101076.69
2024-02-20T02:57:32.652Z,101064.53
2024-02-20T02:59:59.984Z,101068.59
2024-02-20T03:02:27.475Z,101051.47
2024-02-20T03:04:57.727Z,101067.53
2024-02-20T03:07:25.448Z,101075.81
2024-02-20T03:09:52.749Z,101070.75
2024-02-20T03:12:20.049Z,101066.41
2024-02-20T03:14:47.266Z,101069.09
2024-02-20T03:17:14.512Z,101064.09
2024-02-20T03:19:41.913Z,101068.38
2024-02-20T03:22:12.147Z,101066.41
2024-02-20T03:24:41.467Z,101066.22
2024-02-20T03:27:08.784Z,101064.38
2024-02-20T03:29:36.107Z,101065.34
2024-02-20T03:32:03.437Z,101074.91
2024-02-20T03:34:30.816Z,101069.06
2024-02-20T03:36:58.187Z,101070.88
2024-02-20T03:39:25.530Z,101069.22
2024-02-20T03:41:52.906Z,101070.88
2024-02-20T03:44:20.222Z,101072.56
2024-02-20T03:46:47.493Z,101067.41
2024-02-20T03:49:15.555Z,101068.53
2024-02-20T03:51:45.675Z,101061.81
2024-02-20T03:54:13.072Z,101069.34
2024-02-20T03:56:40.334Z,101071.81
2024-02-20T03:59:08.510Z,101055.59
2024-02-20T04:01:35.817Z,101057.25
2024-02-20T04:04:04.392Z,101058.91
2024-02-20T04:06:33.111Z,101041.50
2024-02-20T04:09:05.204Z,101057.59
2024-02-20T04:11:33.504Z,101056.66
2024-02-20T04:14:01.078Z,101058.50
2024-02-20T04:16:28.533Z,101067.25
2024-02-20T04:18:55.912Z,101065.75
2024-02-20T04:21:23.251Z,101069.22
2024-02-20T04:23:50.557Z,101074.28
2024-02-20T04:26:17.853Z,101068.16
2024-02-20T04:28:45.286Z,101054.28
2024-02-20T04:31:12.620Z,101073.44
2024-02-20T04:33:40.054Z,101074.16
2024-02-20T04:36:07.877Z,101029.94
2024-02-20T04:38:35.153Z,101063.13
2024-02-20T04:41:02.451Z,101088.22
2024-02-20T04:43:29.833Z,101091.34
2024-02-20T04:45:57.116Z,101095.50
2024-02-20T04:48:24.512Z,101107.78
2024-02-20T04:50:52.032Z,101099.97
2024-02-20T04:53:19.284Z,101103.63
2024-02-20T04:55:46.636Z,101101.06
2024-02-20T04:58:13.960Z,101098.88
2024-02-20T05:00:41.599Z,101103.53
2024-02-20T05:03:08.959Z,101102.16
2024-02-20T05:05:36.992Z,101096.19
2024-02-20T05:08:05.243Z,101077.78
2024-02-20T05:10:32.624Z,101098.00
2024-02-20T05:13:00.114Z,101061.97
2024-02-20T05:15:27.401Z,101091.88
2024-02-20T05:17:54.723Z,101095.81
2024-02-20T05:20:24.140Z,101090.91
2024-02-20T05:22:51.477Z,101092.84
2024-02-20T05:25:19.015Z,101095.25
2024-02-20T05:27:46.708Z,101100.78
2024-02-20T05:30:14.564Z,101103.88
2024-02-20T05:32:41.917Z,101097.22
2024-02-20T05:35:09.634Z,101084.25
2024-02-20T05:37:37.061Z,101100.72
2024-02-20T05:40:05.459Z,101100.31
2024-02-20T05:42:32.847Z,101089.78
2024-02-20T05:45:00.183Z,101101.56
2024-02-20T05:47:27.606Z,101106.72
2024-02-20T05:49:55.009Z,101097.13
2024-02-20T05:52:22.951Z,101098.50
2024-02-20T05:54:50.366Z,101091.44
2024-02-20T05:57:17.765Z,101089.50
2024-02-20T05:59:45.054Z,101049.53
2024-02-20T06:02:12.673Z,101088.28
2024-02-20T06:04:40.903Z,101093.97
2024-02-20T06:07:08.656Z,101087.19
2024-02-20T06:09:38.666Z,101093.19
2024-02-20T06:12:10.846Z,101091.75
2024-02-20T06:14:38.674Z,101091.56
2024-02-20T06:17:07.221Z,101097.97
2024-02-20T06:19:34.681Z,101092.56
2024-02-20T06:22:02.208Z,101094.00
2024-02-20T06:24:29.752Z,101103.81
2024-02-20T06:26:57.035Z,101084.56
2024-02-20T06:29:24.409Z,101093.19
2024-02-20T06:31:53.737Z,101098.53
2024-02-20T06:34:21.277Z,101108.94
2024-02-20T06:36:48.572Z,101101.81
2024-02-20T06:39:15.850Z,101105.03
2024-02-20T06:41:43.172Z,101101.22
2024-02-20T06:44:10.633Z,101113.66
2024-02-20T06:46:41.557Z,101090.50
2024-02-20T06:49:09.036Z,101097.94
2024-02-20T06:51:36.423Z,101114.97
2024-02-20T06:54:07.110Z,101112.69
2024-02-20T06:56:34.402Z,101113.22
2024-02-20T06:59:01.846Z,101075.75
2024-02-20T07:01:29.391Z,101121.44
2024-02-20T07:03:56.848Z,101115.00
2024-02-20T07:06:25.728Z,101115.66
2024-02-20T07:08:53.692Z,101118.75
2024-02-20T07:11:22.068Z,101113.97
2024-02-20T07:13:50.562Z,101082.84
2024-02-20T07:16:18.528Z,101108.34
2024-02-20T07:18:45.997Z,101107.53
2024-02-20T07:21:13.326Z,101109.09
2024-02-20T07:23:40.536Z,101112.38
2024-02-20T07:26:07.808Z,101102.03
2024-02-20T07:28:35.204Z,101108.81
2024-02-20T07:31:02.523Z,101105.66
2024-02-20T07:33:36.539Z,101111.28
2024-02-20T07:36:05.683Z,101110.06
2024-02-20T07:38:33.068Z,101102.03
2024-02-20T07:41:04.739Z,101105.09
2024-02-20T07:43:35.657Z,101094.56
2024-02-20T07:46:05.396Z,101101.59
2024-02-20T07:48:32.991Z,101089.75
2024-02-20T07:51:00.612Z,101093.97
2024-02-20T07:53:27.981Z,101091.28
2024-02-20T07:55:57.537Z,101091.16
2024-02-20T07:58:34.043Z,101088.41
2024-02-20T08:01:14.183Z,101093.75
2024-02-20T08:03:41.473Z,101094.16
2024-02-20T08:06:09.437Z,101102.38
2024-02-20T08:08:55.489Z,101096.03
2024-02-20T08:11:22.844Z,101104.91
2024-02-20T08:13:50.816Z,101100.47
2024-02-20T08:16:18.271Z,101099.47
2024-02-20T08:18:45.831Z,101104.28
2024-02-20T08:21:13.252Z,101098.44
2024-02-20T08:23:42.740Z,101101.16
2024-02-20T08:26:10.489Z,101091.22
2024-02-20T08:28:41.228Z,101104.91
2024-02-20T08:31:09.909Z,101105.41
2024-02-20T08:33:37.812Z,101107.59
2024-02-20T08:36:05.640Z,101109.44
2024-02-20T08:38:32.888Z,101090.69
2024-02-20T08:41:00.244Z,101107.25
2024-02-20T08:43:27.548Z,101094.09
2024-02-20T08:45:54.946Z,101107.84
2024-02-20T08:48:22.332Z,101096.50
2024-02-20T08:50:49.622Z,101100.56
2024-02-20T08:53:16.926Z,101085.44
2024-02-20T08:55:44.318Z,101112.34
2024-02-20T08:58:11.962Z,101091.44
2024-02-20T09:00:39.230Z,101111.97
2024-02-20T09:03:06.698Z,101098.75
2024-02-20T09:05:37.295Z,101100.03
2024-02-20T09:08:05.558Z,101095.19
2024-02-20T09:10:35.613Z,101088.19
2024-02-20T09:13:02.944Z,101070.63
2024-02-20T09:15:30.262Z,101080.88
2024-02-20T09:17:57.741Z,101062.50
2024-02-20T09:20:25.230Z,101077.56
2024-02-20T09:22:52.720Z,101059.06
2024-02-20T09:25:20.122Z,101068.47
2024-02-20T09:27:48.019Z,101061.88
2024-02-20T09:30:15.561Z,101061.31
2024-02-20T09:32:44.692Z,101063.44
2024-02-20T09:35:12.444Z,101058.59
2024-02-20T09:37:40.004Z,101062.56
2024-02-20T09:40:08.071Z,101060.91
2024-02-20T09:42:45.444Z,101061.44
2024-02-20T09:45:21.389Z,101057.09
2024-02-20T09:47:54.156Z,101050.09
2024-02-20T09:50:25.684Z,101055.78
2024-02-20T09:52:55.599Z,101064.34
2024-02-20T09:55:28.240Z,101055.22
2024-02-20T09:57:59.819Z,101048.81
2024-02-20T10:00:28.678Z,101049.50
2024-02-20T10:02:57.831Z,101038.94
2024-02-20T10:05:27.691Z,101038.59
2024-02-20T10:08:00.624Z,101047.38
2024-02-20T10:10:29.604Z,101039.09
2024-02-20T10:13:01.120Z,101041.09
2024-02-20T10:15:28.880Z,101032.78
2024-02-20T10:18:03.532Z,101045.69
2024-02-20T10:20:32.396Z,100993.38
2024-02-20T10:23:14.945Z,101039.91
2024-02-20T10:25:42.441Z,101042.69
2024-02-20T10:28:10.000Z,101024.59
2024-02-20T10:30:37.694Z,101034.16
2024-02-20T10:33:05.839Z,101029.16
2024-02-20T10:35:33.540Z,101030.56
2024-02-20T10:38:02.750Z,101020.44
2024-02-20T10:40:31.970Z,101031.00
2024-02-20T10:43:00.191Z,101023.09
2024-02-20T10:45:29.202Z,100983.22
2024-02-20T10:47:59.521Z,101026.44
2024-02-20T10:50:27.927Z,101012.59
2024-02-20T10:52:55.861Z,101027.44
2024-02-20T10:55:32.377Z,101004.78
2024-02-20T10:58:05.477Z,101022.78
2024-02-20T11:00:38.282Z,101011.94
2024-02-20T11:03:08.929Z,101015.25
2024-02-20T11:05:36.468Z,101015.44
2024-02-20T11:08:09.769Z,101023.34
2024-02-20T11:10:38.411Z,100980.66
2024-02-20T11:13:29.147Z,101019.16
2024-02-20T11:15:56.598Z,101009.44
2024-02-20T11:18:26.178Z,100992.03
2024-02-20T11:21:09.047Z,101022.69
2024-02-20T11:23:37.206Z,101012.03
2024-02-20T11:26:11.649Z,101010.47
2024-02-20T11:28:40.421Z,101005.56
2024-02-20T11:31:08.659Z,101005.56
2024-02-20T11:33:37.056Z,101015.53
2024-02-20T11:36:08.255Z,101016.69
2024-02-20T11:38:37.749Z,101012.03
2024-02-20T11:41:09.269Z,101013.69
2024-02-20T11:43:37.295Z,101015.19
2024-02-20T11:46:04.843Z,101022.53
2024-02-20T11:48:33.309Z,101010.75
2024-02-20T11:51:02.367Z,101011.25
2024-02-20T11:53:30.067Z,101007.75
2024-02-20T11:55:58.004Z,101009.75
2024-02-20T11:58:28.625Z,100998.97
2024-02-20T12:01:07.481Z,101009.44
2024-02-20T12:03:38.028Z,101010.31
2024-02-20T12:06:11.592Z,101009.50
2024-02-20T12:08:44.955Z,101000.88
2024-02-20T12:11:21.644Z,101005.84
2024-02-20T12:13:54.027Z,101002.47
2024-02-20T12:16:28.781Z,100993.19
2024-02-20T12:19:03.725Z,101008.22
2024-02-20T12:21:40.086Z,100992.47
2024-02-20T12:24:12.217Z,100989.69
2024-02-20T12:26:39.930Z,101001.34
2024-02-20T12:29:07.570Z,100999.25
2024-02-20T12:31:35.866Z,100998.53
2024-02-20T12:34:05.930Z,100993.47
2024-02-20T12:36:33.572Z,100996.31
2024-02-20T12:39:02.681Z,100992.66
2024-02-20T12:41:31.257Z,100994.00
2024-02-20T12:43:58.706Z,100986.44
2024-02-20T12:49:07.220Z,100987.88
2024-02-20T12:51:34.506Z,100983.88
2024-02-20T12:54:01.765Z,100982.75
2024-02-20T12:56:30.055Z,100975.22
2024-02-20T12:58:57.668Z,100976.50
2024-02-20T13:01:25.113Z,100977.09
2024-02-20T13:04:11.272Z,100979.16
2024-02-20T13:06:38.726Z,100978.19
2024-02-20T13:09:06.491Z,100948.06
2024-02-20T13:11:35.271Z,100975.59
2024-02-20T13:14:03.922Z,100976.59
2024-02-20T13:16:31.273Z,100973.06
2024-02-20T13:18:58.723Z,100962.91
2024-02-20T13:21:26.292Z,100963.31
2024-02-20T13:23:53.865Z,100958.81
2024-02-20T13:26:21.312Z,100973.06
2024-02-20T13:28:48.597Z,100971.19
2024-02-20T13:31:16.703Z,100964.34
2024-02-20T13:33:44.134Z,100961.50
2024-02-20T13:36:11.659Z,100963.03
2024-02-20T13:38:41.894Z,100961.88
2024-02-20T13:41:11.239Z,100947.22
2024-02-20T13:43:42.160Z,100937.44
2024-02-20T13:46:09.589Z,100962.78
2024-02-20T13:48:38.166Z,100961.81
2024-02-20T13:51:05.828Z,100966.38
2024-02-20T13:53:33.150Z,100966.50
2024-02-20T13:56:00.523Z,100961.88
2024-02-20T13:58:28.724Z,100949.44
2024-02-20T14:00:56.217Z,100961.09
2024-02-20T14:03:26.129Z,100958.25
2024-02-20T14:05:53.895Z,100951.97
2024-02-20T14:08:39.907Z,100953.78
2024-02-20T14:11:09.476Z,100956.53
2024-02-20T14:13:36.924Z,100957.56
2024-02-20T14:16:04.610Z,100953.31
2024-02-20T14:18:31.944Z,100958.69
2024-02-20T14:21:00.801Z,100943.00
2024-02-20T14:23:28.116Z,100956.69
2024-02-20T14:25:55.497Z,100946.19
2024-02-20T14:28:23.012Z,100962.47
2024-02-20T14:30:57.914Z,100950.78
2024-02-20T14:33:30.205Z,100960.56
2024-02-20T14:35:57.732Z,100951.16
2024-02-20T14:38:25.106Z,100950.22
2024-02-20T14:40:52.690Z,100949.91
2024-02-20T14:43:21.316Z,100946.00
2024-02-20T14:45:49.593Z,100907.50
2024-02-20T14:48:17.873Z,100946.50
2024-02-20T14:50:45.365Z,100951.94
2024-02-20T14:53:13.330Z,100941.97
2024-02-20T14:55:40.753Z,100944.94
2024-02-20T14:58:08.278Z,100945.84
2024-02-20T15:00:35.640Z,100943.63
2024-02-20T15:03:03.849Z,100934.41
2024-02-20T15:05:31.221Z,100932.72
2024-02-20T15:07:58.763Z,100942.91
2024-02-20T15:10:29.779Z,100937.13
2024-02-20T15:13:16.256Z,100937.97
2024-02-20T15:15:43.659Z,100926.03
2024-02-20T15:18:11.124Z,100932.81
2024-02-20T15:20:41.614Z,100933.25
2024-02-20T15:23:10.393Z,100932.66
2024-02-20T15:25:38.468Z,100921.72
2024-02-20T15:28:06.118Z,100915.34
2024-02-20T15:30:33.432Z,100918.56
2024-02-20T15:33:01.120Z,100919.78
2024-02-20T15:35:30.070Z,100914.25
2024-02-20T15:37:57.978Z,100918.78
2024-02-20T15:40:25.353Z,100909.91
2024-02-20T15:42:55.662Z,100904.34
2024-02-20T15:45:23.078Z,100913.41
2024-02-20T15:47:50.443Z,100879.03
2024-02-20T15:50:17.934Z,100894.81
2024-02-20T15:52:45.380Z,100909.84
2024-02-20T15:55:16.139Z,100904.34
2024-02-20T15:57:43.517Z,100909.50
2024-02-20T16:00:13.141Z,100911.47
2024-02-20T16:02:43.265Z,100902.06
2024-02-20T16:05:29.288Z,100876.69
2024-02-20T16:07:58.082Z,100904.50
2024-02-20T16:10:44.321Z,100902.47
2024-02-20T16:13:11.794Z,100905.56
2024-02-20T16:15:39.168Z,100908.69
2024-02-20T16:18:07.229Z,100903.50
2024-02-20T16:20:34.518Z,100912.06
2024-02-20T16:23:03.068Z,100904.03
2024-02-20T16:25:30.667Z,100897.13
2024-02-20T16:27:58.209Z,100897.03
2024-02-20T16:30:25.497Z,100897.97
2024-02-20T16:32:52.803Z,100853.59
2024-02-20T16:35:20.209Z,100904.63
2024-02-20T16:37:47.570Z,100890.88
2024-02-20T16:40:17.322Z,100903.63
2024-02-20T16:42:46.232Z,100901.75
2024-02-20T16:45:13.580Z,100894.47
2024-02-20T16:47:42.135Z,100889.88
2024-02-20T16:50:09.600Z,100870.28
2024-02-20T16:52:37.034Z,100896.34
2024-02-20T16:55:04.960Z,100893.91
2024-02-20T16:57:32.402Z,100889.56
2024-02-20T16:59:59.773Z,100879.94
2024-02-20T17:02:27.656Z,100888.28
2024-02-20T17:04:55.053Z,100877.16
2024-02-20T17:07:22.582Z,100887.16
2024-02-20T17:09:54.987Z,100880.06
2024-02-20T17:12:22.349Z,100883.78
2024-02-20T17:14:49.741Z,100877.53
2024-02-20T17:17:17.095Z,100885.13
2024-02-20T17:19:46.612Z,100876.88
2024-02-20T17:22:13.986Z,100876.97
2024-02-20T17:24:41.404Z,100844.56
2024-02-20T17:27:09.448Z,100832.75
2024-02-20T17:29:38.521Z,100876.41
2024-02-20T17:32:06.965Z,100881.59
2024-02-20T17:34:34.832Z,100879.69
2024-02-20T17:37:04.410Z,100879.09
2024-02-20T17:39:32.101Z,100869.34
2024-02-20T17:41:59.454Z,100876.44
2024-02-20T17:44:26.822Z,100875.47
2024-02-20T17:46:55.280Z,100827.25
2024-02-20T17:49:22.916Z,100881.97
2024-02-20T17:51:51.514Z,100874.66
2024-02-20T17:54:18.971Z,100876.03
2024-02-20T17:56:46.330Z,100873.31
2024-02-20T17:59:13.679Z,100872.75
2024-02-20T18:01:41.037Z,100867.78
2024-02-20T18:04:08.488Z,100871.97
2024-02-20T18:06:54.560Z,100867.91
2024-02-20T18:09:22.409Z,100865.56
2024-02-20T18:11:49.892Z,100871.00
2024-02-20T18:14:17.227Z,100865.84
2024-02-20T18:16:45.671Z,100864.78
2024-02-20T18:19:14.350Z,100868.00
2024-02-20T18:21:42.261Z,100871.97
2024-02-20T18:24:09.668Z,100864.47
2024-02-20T18:26:37.064Z,100863.03
2024-02-20T18:29:04.419Z,100870.66
2024-02-20T18:31:31.859Z,100868.41
2024-02-20T18:33:59.358Z,100860.25
2024-02-20T18:36:27.081Z,100859.06
2024-02-20T18:38:54.351Z,100851.72
2024-02-20T18:41:22.564Z,100857.28
2024-02-20T18:43:50.102Z,100851.59
2024-02-20T18:46:17.566Z,100847.16
2024-02-20T18:48:45.104Z,100834.88
2024-02-20T18:51:12.456Z,100858.47
2024-02-20T18:53:40.446Z,100858.97
2024-02-20T18:56:08.486Z,100850.28
2024-02-20T18:58:35.832Z,100854.81
2024-02-20T19:01:03.337Z,100850.81
2024-02-20T19:03:30.817Z,100858.19
2024-02-20T19:06:17.639Z,100853.81
2024-02-20T19:08:45.361Z,100859.09
2024-02-20T19:11:13.206Z,100858.31
2024-02-20T19:13:40.820Z,100861.59
2024-02-20T19:16:08.314Z,100868.28
2024-02-20T19:18:35.620Z,100859.91
2024-02-20T19:21:21.752Z,100856.94
2024-02-20T19:23:52.332Z,100828.00
2024-02-20T19:26:19.990Z,100869.47
2024-02-20T19:28:47.703Z,100873.75
2024-02-20T19:31:18.417Z,100865.81
2024-02-20T19:33:46.852Z,100861.25
2024-02-20T19:36:14.650Z,100867.13
2024-02-20T19:38:42.609Z,100863.44
2024-02-20T19:41:10.445Z,100847.00
2024-02-20T19:43:37.828Z,100853.91
2024-02-20T19:46:05.209Z,100840.06
2024-02-20T19:48:32.801Z,100853.78
2024-02-20T19:51:00.223Z,100866.44
2024-02-20T19:53:27.591Z,100857.16
2024-02-20T19:55:55.035Z,100860.50
2024-02-20T19:58:22.566Z,100846.34
2024-02-20T20:00:49.905Z,100863.63
2024-02-20T20:03:17.264Z,100862.19
2024-02-20T20:05:44.747Z,100867.00
2024-02-20T20:08:12.274Z,100858.59
2024-02-20T20:10:39.626Z,100860.38
2024-02-20T20:13:07.050Z,100854.41
2024-02-20T20:15:38.003Z,100849.63
2024-02-20T20:18:06.096Z,100854.72
2024-02-20T20:20:33.498Z,100844.47
2024-02-20T20:23:00.858Z,100856.97
2024-02-20T20:25:28.152Z,100846.34
2024-02-20T20:27:55.414Z,100842.13
2024-02-20T20:30:24.351Z,100847.03
2024-02-20T20:32:53.279Z,100844.72
2024-02-20T20:35:21.607Z,100851.13
2024-02-20T20:37:53.650Z,100846.97
2024-02-20T20:40:21.830Z,100831.13
2024-02-20T20:42:50.242Z,100839.00
2024-02-20T20:45:18.272Z,100810.97
2024-02-20T20:47:45.528Z,100840.09
2024-02-20T20:50:12.910Z,100849.16
2024-02-20T20:52:40.279Z,100839.94
2024-02-20T20:55:08.332Z,100841.66
2024-02-20T20:57:35.653Z,100842.63
2024-02-20T21:00:05.220Z,100841.91
2024-02-20T21:02:32.881Z,100837.19
2024-02-20T21:05:00.343Z,100838.66
2024-02-20T21:07:46.773Z,100838.66
2024-02-20T21:10:14.578Z,100839.69
2024-02-20T21:12:41.983Z,100828.44
2024-02-20T21:15:13.842Z,100837.81
2024-02-20T21:17:41.354Z,100823.88
2024-02-20T21:20:09.075Z,100845.84
2024-02-20T21:22:36.624Z,100845.31
2024-02-20T21:25:04.341Z,100844.91
2024-02-20T21:27:31.746Z,100846.66
2024-02-20T21:29:58.960Z,100844.41
2024-02-20T21:32:26.495Z,100835.75
2024-02-20T21:34:53.882Z,100838.53
2024-02-20T21:37:21.328Z,100834.44
2024-02-20T21:39:48.724Z,100839.84
2024-02-20T21:42:16.114Z,100828.56
2024-02-20T21:44:43.428Z,100832.25
2024-02-20T21:47:10.693Z,100825.13
2024-02-20T21:49:38.046Z,100828.16
2024-02-20T21:52:05.385Z,100828.25
2024-02-20T21:54:32.722Z,100826.16
2024-02-20T21:56:59.973Z,100799.88
2024-02-20T21:59:27.392Z,100818.28
2024-02-20T22:01:54.681Z,100822.78
2024-02-20T22:04:22.143Z,100811.34
2024-02-20T22:06:49.531Z,100822.00
2024-02-20T22:09:16.857Z,100802.31
2024-02-20T22:11:44.386Z,100818.94
2024-02-20T22:14:12.047Z,100813.75
2024-02-20T22:16:40.278Z,100821.66
2024-02-20T22:19:10.012Z,100810.19
2024-02-20T22:21:37.426Z,100811.41
2024-02-20T22:24:06.477Z,100806.38
2024-02-20T22:26:34.196Z,100798.78
2024-02-20T22:29:01.662Z,100803.09
2024-02-20T22:31:29.030Z,100799.53
2024-02-20T22:33:56.469Z,100807.53
2024-02-20T22:36:23.922Z,100801.31
2024-02-20T22:38:52.483Z,100794.25
2024-02-20T22:41:20.717Z,100800.97
2024-02-20T22:43:48.721Z,100790.09
2024-02-20T22:46:16.413Z,100801.84
2024-02-20T22:48:47.488Z,100800.88
2024-02-20T22:51:15.305Z,100800.84
2024-02-20T22:53:42.687Z,100799.94
2024-02-20T22:56:09.985Z,100788.06
2024-02-20T22:58:37.437Z,100799.63
2024-02-20T23:01:05.557Z,100790.22
2024-02-20T23:03:33.116Z,100792.25
2024-02-20T23:06:00.590Z,100797.19
2024-02-20T23:08:27.971Z,100782.84
2024-02-20T23:10:55.268Z,100787.09
2024-02-20T23:17:51.947Z,100786.88
2024-02-20T23:20:19.447Z,100782.25
2024-02-20T23:22:46.954Z,100787.44
2024-02-20T23:25:14.725Z,100780.63
2024-02-20T23:27:43.075Z,100787.94
2024-02-20T23:30:12.734Z,100779.25
2024-02-20T23:32:40.559Z,100777.25
2024-02-20T23:35:10.548Z,100780.69
2024-02-20T23:37:38.031Z,100774.63
2024-02-20T23:40:06.516Z,100772.88
2024-02-20T23:42:33.813Z,100767.47
2024-02-20T23:45:01.195Z,100770.56
2024-02-20T23:47:28.454Z,100772.88
2024-02-20T23:49:55.891Z,100769.72
2024-02-20T23:52:23.175Z,100771.97
2024-02-20T23:54:50.470Z,100778.81
2024-02-20T23:57:17.797Z,100763.56
2024-02-20T23:59:45.119Z,100743.41
